Time;durP1;ratioP1;P1;durP2;ratioP2;P2;SDS_P1;SDS_P2;PMS_P1;PMS_P2;Temp;Humidity;BMP_temperature;BMP_pressure;BME280_temperature;BME280_humidity;BME280_pressure;Samples;Min_cycle;Max_cycle;Signal;HPM_P1;HPM_P2
2021/01/01 00:00:34;199350.00;0.66;344.80;0.00;0.00;0.62;;;;;11.00;1.00;;;;;;2276666;61;1661;-87
2021/01/01 00:03:02;180717.00;0.60;312.72;42072.00;0.14;73.47;;;;;10.90;1.00;;;;;;2276885;61;1695;-88
2021/01/01 00:05:28;0.00;0.00;0.62;0.00;0.00;0.62;;;;;10.80;1.00;;;;;;2276936;61;1059;-90
2021/01/01 00:07:55;31524.00;0.11;55.22;0.00;0.00;0.62;;;;;11.40;1.00;;;;;;2276886;61;1998;-88
2021/01/01 00:10:22;74058.00;0.25;128.77;0.00;0.00;0.62;;;;;11.80;1.00;;;;;;2276876;61;1072;-88
2021/01/01 00:12:48;0.00;0.00;0.62;0.00;0.00;0.62;;;;;12.00;1.00;;;;;;2276961;61;1090;-87
2021/01/01 00:15:15;63847.00;0.21;111.13;0.00;0.00;0.62;;;;;12.20;1.00;;;;;;2276888;61;1146;-88
2021/01/01 00:17:42;28871.00;0.10;50.63;0.00;0.00;0.62;;;;;12.40;1.00;;;;;;2276814;61;1797;-88
2021/01/01 00:20:11;33282.00;0.11;58.26;0.00;0.00;0.62;;;;;12.50;1.00;;;;;;2276959;61;1002;-89
2021/01/01 00:22:39;43710.00;0.15;76.31;0.00;0.00;0.62;;;;;11.90;1.00;;;;;;2276876;61;1072;-88
2021/01/01 00:25:07;71900.00;0.24;125.04;0.00;0.00;0.62;;;;;12.10;1.00;;;;;;2276830;61;1148;-88
2021/01/01 00:27:34;0.00;0.00;0.62;0.00;0.00;0.62;;;;;12.60;1.00;;;;;;2276811;61;2026;-88
2021/01/01 00:30:00;0.00;0.00;0.62;0.00;0.00;0.62;;;;;12.80;1.00;;;;;;2276734;61;1122;-88
2021/01/01 00:32:27;300422.00;1.00;518.65;0.00;0.00;0.62;;;;;12.90;1.00;;;;;;2276876;61;1142;-88
2021/01/01 00:34:54;69417.00;0.23;120.75;0.00;0.00;0.62;;;;;12.90;1.00;;;;;;2276878;61;1000;-88
2021/01/01 00:37:21;168295.00;0.56;291.33;0.00;0.00;0.62;;;;;12.60;1.00;;;;;;2276818;61;1428;-88
2021/01/01 00:39:47;40380.00;0.13;70.55;0.00;0.00;0.62;;;;;12.40;1.00;;;;;;2276872;61;1079;-88
2021/01/01 00:42:14;99619.00;0.33;172.91;0.00;0.00;0.62;;;;;11.50;1.00;;;;;;2276839;61;1114;-88
2021/01/01 00:44:41;44005.00;0.15;76.82;0.00;0.00;0.62;;;;;11.40;1.00;;;;;;2266444;61;1089;-87
2021/01/01 00:47:10;51377.00;0.17;89.57;0.00;0.00;0.62;;;;;11.30;1.00;;;;;;2276738;61;1129;-87
2021/01/01 00:49:36;24026.00;0.08;42.24;0.00;0.00;0.62;;;;;11.30;1.00;;;;;;2269736;61;1932;-88
2021/01/01 00:52:04;59797.00;0.20;104.13;0.00;0.00;0.62;;;;;11.30;1.00;;;;;;2276509;61;1122;-89
2021/01/01 00:54:32;0.00;0.00;0.62;0.00;0.00;0.62;;;;;12.00;1.00;;;;;;2276669;61;1142;-87
2021/01/01 00:56:59;101276.00;0.34;175.77;0.00;0.00;0.62;;;;;12.40;1.00;;;;;;2276824;61;1058;-87
2021/01/01 00:59:27;33771.00;0.11;59.11;0.00;0.00;0.62;;;;;12.60;1.00;;;;;;2276731;61;1358;-87
2021/01/01 01:01:54;47679.00;0.16;83.17;0.00;0.00;0.62;;;;;12.30;1.00;;;;;;2276263;61;1077;-87
2021/01/01 01:04:21;0.00;0.00;0.62;0.00;0.00;0.62;;;;;11.90;1.00;;;;;;2276742;61;1156;-88
2021/01/01 01:06:47;116107.00;0.39;201.37;0.00;0.00;0.62;;;;;11.60;1.00;;;;;;2276793;61;1123;-87
2021/01/01 01:09:13;52411.00;0.17;91.36;0.00;0.00;0.62;;;;;11.10;1.00;;;;;;2276679;61;1988;-86
2021/01/01 01:11:41;51373.00;0.17;89.56;0.00;0.00;0.62;;;;;10.70;1.00;;;;;;2276788;61;1129;-85
2021/01/01 01:14:07;287919.00;0.96;497.15;28840.00;0.10;50.58;;;;;10.70;1.00;;;;;;2266353;61;1070;-85
2021/01/01 01:16:34;204876.00;0.68;354.32;8787.00;0.03;15.85;;;;;11.20;1.00;;;;;;2276699;61;1158;-85
2021/01/01 01:19:01;116544744.00;388.48;64120696.00;18848.00;0.06;33.28;;;;;11.10;1.00;;;;;;2268173;61;1372;-86
2021/01/01 01:21:28;133673.00;0.45;231.66;0.00;0.00;0.62;;;;;11.60;1.00;;;;;;2268155;61;1099;-87
2021/01/01 01:23:56;7294.00;0.02;13.26;0.00;0.00;0.62;;;;;12.10;1.00;;;;;;2267984;61;1048;-88
2021/01/01 01:26:23;56403.00;0.19;98.26;0.00;0.00;0.62;;;;;12.50;1.00;;;;;;2268204;61;1150;-88
2021/01/01 01:28:51;98890.00;0.33;171.66;0.00;0.00;0.62;;;;;12.60;1.00;;;;;;2268186;61;1994;-88
2021/01/01 01:31:18;87099.00;0.29;151.30;0.00;0.00;0.62;;;;;12.70;1.00;;;;;;2267977;61;1538;-88
2021/01/01 01:33:45;49287.00;0.16;85.95;0.00;0.00;0.62;;;;;12.80;1.00;;;;;;2267926;61;1049;-89
2021/01/01 01:36:11;42536.00;0.14;74.28;0.00;0.00;0.62;;;;;12.80;1.00;;;;;;2269496;61;1051;-89
2021/01/01 01:38:38;54722.00;0.18;95.35;0.00;0.00;0.62;;;;;12.70;1.00;;;;;;2276658;61;1408;-89
2021/01/01 01:41:04;42156.00;0.14;73.62;0.00;0.00;0.62;;;;;12.20;1.00;;;;;;2276716;61;1095;-89
2021/01/01 01:43:31;113663.00;0.38;197.15;0.00;0.00;0.62;;;;;12.10;1.00;;;;;;2276633;61;1042;-88
2021/01/01 01:45:58;90774.00;0.30;157.64;0.00;0.00;0.62;;;;;11.80;1.00;;;;;;2276659;61;1154;-88
2021/01/01 01:48:27;71853.00;0.24;124.96;0.00;0.00;0.62;;;;;11.80;1.00;;;;;;2276524;61;2010;-89
2021/01/01 01:50:54;41365.00;0.14;72.25;0.00;0.00;0.62;;;;;11.90;1.00;;;;;;2276607;61;1651;-88
2021/01/01 01:53:22;61451.00;0.20;106.99;0.00;0.00;0.62;;;;;12.00;1.00;;;;;;2276640;61;1182;-88
2021/01/01 01:55:51;31163.00;0.10;54.60;0.00;0.00;0.62;;;;;12.00;1.00;;;;;;2276691;61;1146;-89
2021/01/01 01:58:19;29522.00;0.10;51.76;0.00;0.00;0.62;;;;;12.00;1.00;;;;;;2277029;61;1447;-88
2021/01/01 02:00:57;0.00;0.00;0.62;0.00;0.00;0.62;;;;;12.20;1.00;;;;;;2270319;61;1101;-88
2021/01/01 02:03:26;22156.00;0.07;39.00;0.00;0.00;0.62;;;;;12.40;1.00;;;;;;2270295;61;1020;-87
2021/01/01 02:05:53;396203.00;1.32;683.28;153710.00;0.51;266.20;;;;;12.60;1.00;;;;;;2277194;61;1078;-89
2021/01/01 02:08:20;313816.00;1.05;541.67;84217.00;0.28;146.32;;;;;12.60;1.00;;;;;;2277223;61;1924;-88
2021/01/01 02:10:47;29334.00;0.10;51.43;77905.00;0.26;135.42;;;;;12.70;1.00;;;;;;2277315;61;1167;-88
2021/01/01 02:13:15;117917376.00;393.06;66415148.00;0.00;0.00;0.62;;;;;12.70;1.00;;;;;;2277333;61;1078;-89
2021/01/01 02:15:42;46950.00;0.16;81.91;0.00;0.00;0.62;;;;;12.60;1.00;;;;;;2277364;61;1003;-89
2021/01/01 02:18:08;109824.00;0.37;190.53;0.00;0.00;0.62;;;;;12.50;1.00;;;;;;2277304;61;1468;-88
2021/01/01 02:20:36;11674.00;0.04;20.85;0.00;0.00;0.62;;;;;12.40;1.00;;;;;;2277345;61;1048;-88
2021/01/01 02:23:04;74884.00;0.25;130.20;0.00;0.00;0.62;;;;;12.20;1.00;;;;;;2277309;61;1150;-89
2021/01/01 02:28:52;197934.00;0.66;342.37;10142.00;0.03;18.20;;;;;11.70;1.00;;;;;;2277272;61;2014;-88
2021/01/01 02:31:19;416296.00;1.39;717.82;83152.00;0.28;144.48;;;;;12.00;1.00;;;;;;2277200;61;1122;-88
2021/01/01 02:33:45;322586.00;1.08;556.74;89341.00;0.30;155.17;;;;;12.40;1.00;;;;;;2277230;61;1125;-88
2021/01/01 02:36:11;384912.00;1.28;663.87;89340.00;0.30;155.17;;;;;12.60;1.00;;;;;;2277215;61;1074;-88
2021/01/01 02:38:40;404138.00;1.35;696.92;91418.00;0.30;158.76;;;;;12.70;1.00;;;;;;2277236;61;1433;-88
2021/01/01 02:41:06;339833.00;1.13;586.39;96070.00;0.32;166.79;;;;;12.80;1.00;;;;;;2277218;61;1735;-87
2021/01/01 02:43:33;305077.00;1.02;526.65;92964.00;0.31;161.43;;;;;12.90;1.00;;;;;;2277247;61;1006;-88
2021/01/01 02:45:59;570376.00;1.90;983.10;85821.00;0.29;149.09;;;;;12.80;1.00;;;;;;2275719;61;1087;-89
2021/01/01 02:48:26;339028.00;1.13;585.00;87493.00;0.29;151.98;;;;;12.90;1.00;;;;;;2276866;61;1909;-87
2021/01/01 02:50:53;400040.00;1.33;689.87;80276.00;0.27;139.51;;;;;12.50;1.00;;;;;;2277226;61;1084;-88
2021/01/01 02:53:19;347314.00;1.16;599.24;80161.00;0.27;139.32;;;;;12.50;1.00;;;;;;2277113;61;1052;-88
2021/01/01 02:55:47;332478.00;1.11;573.75;80374.00;0.27;139.68;;;;;12.50;1.00;;;;;;2270236;61;1008;-87
2021/01/01 02:58:14;375083.00;1.25;646.97;88759.00;0.30;154.16;;;;;12.40;1.00;;;;;;2277192;61;1501;-88
2021/01/01 03:00:42;676536.00;2.26;1166.57;87470.00;0.29;151.94;;;;;12.30;1.00;;;;;;2270195;61;1021;-88
2021/01/01 03:03:09;541696.00;1.81;933.65;90550.00;0.30;157.26;;;;;11.80;1.00;;;;;;2276719;61;1129;-86
2021/01/01 03:05:36;396692.00;1.32;684.12;83882.00;0.28;145.74;;;;;10.70;1.00;;;;;;2266833;61;1012;-86
2021/01/01 03:08:03;624084.00;2.08;1075.82;92708.00;0.31;160.98;;;;;10.10;1.00;;;;;;2276851;61;1996;-86
2021/01/01 03:10:30;495034.00;1.65;853.27;91233.00;0.30;158.44;;;;;10.00;1.00;;;;;;2277125;61;1006;-86
2021/01/01 03:12:57;572915.00;1.91;987.48;81711.00;0.27;141.99;;;;;10.20;1.00;;;;;;2277122;61;1134;-86
2021/01/01 03:15:24;471154.00;1.57;812.18;81184.00;0.27;141.08;;;;;10.60;1.00;;;;;;2270099;61;1186;-87
2021/01/01 03:17:51;573994.00;1.91;989.34;64994.00;0.22;113.11;;;;;11.00;1.00;;;;;;2266722;61;1414;-87
2021/01/01 03:20:17;535931.00;1.79;923.71;77027.00;0.26;133.90;;;;;11.50;1.00;;;;;;2277095;61;1028;-87
2021/01/01 03:22:44;604179.00;2.01;1041.44;78132.00;0.26;135.81;;;;;11.60;1.00;;;;;;2277104;61;1051;-89
2021/01/01 03:25:11;585924.00;1.95;1009.92;87410.00;0.29;151.84;;;;;11.80;1.00;;;;;;2277102;61;1162;-89
2021/01/01 03:27:37;410785.00;1.37;708.35;90724.00;0.30;157.56;;;;;12.00;1.00;;;;;;2266716;61;1416;-87
2021/01/01 03:30:09;722728.00;2.41;1246.67;84831.00;0.28;147.38;;;;;12.00;1.00;;;;;;2270017;61;1936;-88
2021/01/01 03:32:35;282632.00;0.94;488.06;0.00;0.00;0.62;;;;;12.30;1.00;;;;;;2277082;61;1125;-88
2021/01/01 03:35:06;371600.00;1.24;640.99;85682.00;0.29;148.85;;;;;12.30;1.00;;;;;;2277097;61;1016;-88
2021/01/01 03:37:33;316644.00;1.06;546.53;0.00;0.00;0.62;;;;;12.50;1.00;;;;;;2268454;61;1448;-88
2021/01/01 03:40:00;506196.00;1.69;872.49;25490.00;0.08;44.78;;;;;12.70;1.00;;;;;;2268577;61;1052;-88
2021/01/01 03:42:27;401194.00;1.34;691.86;0.00;0.00;0.62;;;;;12.10;1.00;;;;;;2268374;61;1724;-87
2021/01/01 03:44:53;275383.00;0.92;475.60;0.00;0.00;0.62;;;;;11.80;1.00;;;;;;2261898;61;1076;-88
2021/01/01 03:47:20;328495.00;1.09;566.90;0.00;0.00;0.62;;;;;11.50;1.00;;;;;;2268565;61;1376;-87
2021/01/01 03:49:47;219448.00;0.73;379.39;0.00;0.00;0.62;;;;;11.20;1.00;;;;;;2261827;61;1940;-88
2021/01/01 03:52:13;479674.00;1.60;826.84;0.00;0.00;0.62;;;;;11.30;1.00;;;;;;2268519;61;1113;-88
2021/01/01 03:54:40;537672.00;1.79;926.71;81220.00;0.27;141.14;;;;;11.30;1.00;;;;;;2269522;61;1120;-87
2021/01/01 03:57:06;561456.00;1.87;967.71;97931.00;0.33;170.00;;;;;11.60;1.00;;;;;;2277031;61;1122;-88
2021/01/01 03:59:33;558760.00;1.86;963.06;96114.00;0.32;166.86;;;;;12.00;1.00;;;;;;2276873;61;1285;-88
2021/01/01 04:01:59;553736.00;1.85;954.40;85894.00;0.29;149.22;;;;;12.40;1.00;;;;;;2266606;61;1128;-88
2021/01/01 04:04:26;564246.00;1.88;972.52;91228.00;0.30;158.43;;;;;12.40;1.00;;;;;;2269826;61;965;-88
2021/01/01 04:06:53;570560.00;1.90;983.41;0.00;0.00;0.62;;;;;12.20;1.00;;;;;;2273259;61;1140;-88
2021/01/01 04:09:19;533105.00;1.78;918.84;82502.00;0.28;143.36;;;;;11.50;1.00;;;;;;2276413;61;2006;-88
2021/01/01 04:11:46;558443.00;1.86;962.52;79521.00;0.27;138.21;;;;;11.40;1.00;;;;;;2273147;61;1099;-88
2021/01/01 04:14:12;524983.00;1.75;904.85;80617.00;0.27;140.10;;;;;11.10;1.00;;;;;;2264351;61;1016;-88
2021/01/01 04:16:45;491077.00;1.64;846.46;73724.00;0.25;128.20;;;;;11.10;1.00;;;;;;2264396;61;1002;-87
2021/01/01 04:19:12;431355.00;1.44;743.72;0.00;0.00;0.62;;;;;11.10;1.00;;;;;;2264246;61;1415;-88
2021/01/01 08:49:35;791128.00;2.64;1365.66;15710.00;0.05;27.84;;;;;11.40;1.00;;;;;;2283314;61;1943;-94
2021/01/01 10:44:52;42873.00;0.14;74.86;0.00;0.00;0.62;;;;;9.40;1.00;;;;;;2419353;40;3350;31
2021/01/01 12:42:16;601261.00;2.00;1036.40;0.00;0.00;0.62;;;;;10.40;1.00;;;;;;2505777;40;3533;31
2021/01/01 13:52:47;396566.00;1.32;683.90;89891.00;0.30;156.12;;;;;12.40;1.00;;;;;;2283546;61;1310;-89
2021/01/01 13:55:14;261228.00;0.87;451.26;87445.00;0.29;151.90;;;;;12.00;1.00;;;;;;2281995;61;1639;-93
2021/01/01 14:02:51;711554.00;2.37;1227.28;88619.00;0.30;153.92;;;;;11.00;1.00;;;;;;2279438;61;1291;-93
2021/01/01 14:05:18;399908.00;1.33;689.65;79685.00;0.27;138.49;;;;;10.50;1.00;;;;;;2265263;61;814;-92
2021/01/01 14:07:45;567824.00;1.89;978.69;85672.00;0.29;148.83;;;;;10.70;1.00;;;;;;2265358;61;1930;-91
2021/01/01 15:32:40;349778.00;1.17;603.48;0.00;0.00;0.62;;;;;10.90;1.00;;;;;;2279355;61;1328;-92
2021/01/01 15:35:07;186322.00;0.62;322.38;0.00;0.00;0.62;;;;;11.20;1.00;;;;;;2276754;61;1707;-90
2021/01/01 16:10:52;480072.00;1.60;827.52;0.00;0.00;0.62;;;;;12.20;1.00;;;;;;2278262;61;1906;-90
2021/01/01 16:20:54;103964.00;0.35;180.41;0.00;0.00;0.62;;;;;12.40;1.00;;;;;;2278194;61;1332;-89
2021/01/01 16:30:56;1462518.00;4.88;2572.79;0.00;0.00;0.62;;;;;12.20;1.00;;;;;;2278609;61;1903;-90
2021/01/01 16:33:23;75703.00;0.25;131.61;0.00;0.00;0.62;;;;;12.50;1.00;;;;;;2264212;61;1448;-90
2021/01/01 16:35:50;78734.00;0.26;136.85;0.00;0.00;0.62;;;;;12.70;1.00;;;;;;2264350;61;995;-89
2021/01/01 16:38:17;167817.00;0.56;290.51;0.00;0.00;0.62;;;;;12.90;1.00;;;;;;2256120;61;1023;-90
2021/01/01 16:40:43;92051.00;0.31;159.85;0.00;0.00;0.62;;;;;12.60;1.00;;;;;;2249554;61;1027;-90
2021/01/01 16:43:10;252866.00;0.84;436.88;0.00;0.00;0.62;;;;;12.70;1.00;;;;;;2252198;61;1723;-90
2021/01/01 16:45:37;106579.00;0.36;184.93;0.00;0.00;0.62;;;;;12.70;1.00;;;;;;2252305;61;1003;-90
2021/01/01 16:48:05;95504.00;0.32;165.81;0.00;0.00;0.62;;;;;12.80;1.00;;;;;;2252177;61;1718;-90
2021/01/01 16:50:32;306214.00;1.02;528.60;0.00;0.00;0.62;;;;;12.70;1.00;;;;;;2253292;61;1998;-91
2021/01/01 16:52:59;295260.00;0.98;509.77;0.00;0.00;0.62;;;;;12.60;1.00;;;;;;2260057;61;1694;-91
2021/01/01 16:55:25;141135.00;0.47;244.53;0.00;0.00;0.62;;;;;12.70;1.00;;;;;;2260749;61;1750;-90
2021/01/01 16:57:52;287867.00;0.96;497.06;0.00;0.00;0.62;;;;;12.80;1.00;;;;;;2264684;61;1497;-89
2021/01/01 17:00:20;107439.00;0.36;186.41;0.00;0.00;0.62;;;;;12.70;1.00;;;;;;2268654;61;973;-88
2021/01/01 17:02:46;194238.00;0.65;336.00;0.00;0.00;0.62;;;;;12.60;1.00;;;;;;2268504;61;1486;-89
2021/01/01 17:05:14;103418.00;0.34;179.47;0.00;0.00;0.62;;;;;12.60;1.00;;;;;;2268617;61;1640;-91
2021/01/01 17:07:40;197398.00;0.66;341.44;0.00;0.00;0.62;;;;;12.70;1.00;;;;;;2268639;61;1066;-89
2021/01/01 17:10:08;130041.00;0.43;225.40;0.00;0.00;0.62;;;;;12.70;1.00;;;;;;2268331;61;1995;-90
2021/01/01 17:12:34;215488.00;0.72;372.58;0.00;0.00;0.62;;;;;12.70;1.00;;;;;;2268588;61;1640;-91
2021/01/01 17:15:01;106785.00;0.36;185.28;0.00;0.00;0.62;;;;;12.70;1.00;;;;;;2268643;61;1085;-89
2021/01/01 17:17:28;153527.00;0.51;265.89;0.00;0.00;0.62;;;;;12.70;1.00;;;;;;2268503;61;1640;-91
2021/01/01 17:19:54;244074.00;0.81;421.76;0.00;0.00;0.62;;;;;12.70;1.00;;;;;;2268606;61;1727;-88
2021/01/01 17:22:22;313201.00;1.04;540.61;25194.00;0.08;44.26;;;;;12.70;1.00;;;;;;2268452;61;1588;-90
2021/01/01 17:24:50;208768.00;0.70;361.02;0.00;0.00;0.62;;;;;12.70;1.00;;;;;;2268570;61;1684;-91
2021/01/01 17:27:16;0.00;0.00;0.62;0.00;0.00;0.62;;;;;12.70;1.00;;;;;;2268175;61;1129;-90
2021/01/01 17:29:43;134738.00;0.45;233.50;0.00;0.00;0.62;;;;;12.60;1.00;;;;;;2268553;61;1920;-90
2021/01/01 17:32:09;176188.00;0.59;304.92;0.00;0.00;0.62;;;;;12.60;1.00;;;;;;2268567;61;1289;-91
2021/01/01 17:34:36;187313.00;0.62;324.08;0.00;0.00;0.62;;;;;12.60;1.00;;;;;;2268470;61;1701;-91
2021/01/01 17:37:04;170358.00;0.57;294.88;0.00;0.00;0.62;;;;;12.50;1.00;;;;;;2268494;61;1756;-90
2021/01/01 17:39:32;164480.00;0.55;284.76;0.00;0.00;0.62;;;;;12.50;1.00;;;;;;2268557;61;1469;-88
2021/01/01 17:41:59;14544.00;0.05;25.82;0.00;0.00;0.62;;;;;12.60;1.00;;;;;;2268616;61;1316;-89
2021/01/01 17:44:25;181810.00;0.61;314.61;0.00;0.00;0.62;;;;;12.70;1.00;;;;;;2272162;61;1670;-91
2021/01/01 17:46:53;195641.00;0.65;338.42;0.00;0.00;0.62;;;;;12.70;1.00;;;;;;2272606;61;1709;-89
2021/01/01 17:49:19;167561.00;0.56;290.07;0.00;0.00;0.62;;;;;12.60;1.00;;;;;;2272551;61;1997;-90
2021/01/01 17:51:46;86733.00;0.29;150.67;0.00;0.00;0.62;;;;;12.40;1.00;;;;;;2272553;61;1414;-90
2021/01/01 17:54:13;21540.00;0.07;37.94;0.00;0.00;0.62;;;;;12.30;1.00;;;;;;2272630;61;986;-89
2021/01/01 17:56:40;166564.00;0.56;288.35;0.00;0.00;0.62;;;;;12.30;1.00;;;;;;2272515;61;1589;-90
2021/01/01 17:59:07;123235.00;0.41;213.66;0.00;0.00;0.62;;;;;12.30;1.00;;;;;;2272398;61;1113;-90
2021/01/01 18:01:33;170600.00;0.57;295.30;0.00;0.00;0.62;;;;;12.30;1.00;;;;;;2272566;61;1667;-90
2021/01/01 18:44:32;296757.00;0.99;512.35;0.00;0.00;0.62;;;;;12.20;1.00;;;;;;2282580;61;1348;-90
2021/01/01 18:47:03;5968.00;0.02;10.96;0.00;0.00;0.62;;;;;12.10;1.00;;;;;;2281188;61;1123;-90
2021/01/01 18:49:30;153571.00;0.51;265.96;0.00;0.00;0.62;;;;;12.10;1.00;;;;;;2281062;61;1978;-90
2021/01/01 18:51:59;152192.00;0.51;263.59;0.00;0.00;0.62;;;;;12.10;1.00;;;;;;2281081;60;1736;-90
2021/01/01 18:54:30;164791.00;0.55;285.29;0.00;0.00;0.62;;;;;12.00;1.00;;;;;;2281204;60;1705;-91
2021/01/01 18:57:23;146902.00;0.49;254.47;0.00;0.00;0.62;;;;;12.00;1.00;;;;;;2281096;60;1311;-91
2021/01/01 19:00:14;74779.00;0.25;130.02;0.00;0.00;0.62;;;;;12.20;1.00;;;;;;2281123;60;1727;-90
2021/01/01 19:13:04;115085.00;0.38;199.60;0.00;0.00;0.62;;;;;11.60;1.00;;;;;;2283124;61;1278;-91
2021/01/01 19:15:33;97951.00;0.33;170.03;0.00;0.00;0.62;;;;;11.80;1.00;;;;;;2272516;61;1087;-89
2021/01/01 19:18:10;51671.00;0.17;90.08;0.00;0.00;0.62;;;;;11.90;1.00;;;;;;2272586;61;1164;-90
2021/01/01 19:20:45;71864.00;0.24;124.98;0.00;0.00;0.62;;;;;12.00;1.00;;;;;;2272539;61;1133;-91
2021/01/01 19:23:20;187971.00;0.63;325.22;0.00;0.00;0.62;;;;;12.00;1.00;;;;;;2272468;61;1554;-91
2021/01/01 19:57:20;458605.00;1.53;790.58;0.00;0.00;0.62;;;;;12.10;1.00;;;;;;2279034;61;1187;-90
2021/01/01 19:59:52;225653.00;0.75;390.07;0.00;0.00;0.62;;;;;12.10;1.00;;;;;;2264438;61;943;-90
2021/01/01 20:02:30;160610.00;0.54;278.09;0.00;0.00;0.62;;;;;12.10;1.00;;;;;;2264369;61;1334;-91
2021/01/01 20:04:57;267282.00;0.89;461.67;0.00;0.00;0.62;;;;;12.10;1.00;;;;;;2264337;61;1583;-88
2021/01/01 20:07:34;385862.00;1.29;665.50;0.00;0.00;0.62;;;;;12.20;1.00;;;;;;2264354;61;1739;-89
2021/01/01 20:10:05;357851.00;1.19;617.36;0.00;0.00;0.62;;;;;12.20;1.00;;;;;;2264391;61;1911;-90
2021/01/01 20:12:49;330301.00;1.10;570.00;0.00;0.00;0.62;;;;;12.10;1.00;;;;;;2264472;61;1467;-89
2021/01/01 20:15:19;429408.00;1.43;740.37;0.00;0.00;0.62;;;;;12.10;1.00;;;;;;2264354;61;1590;-90
2021/01/01 20:17:55;217047.00;0.72;375.26;0.00;0.00;0.62;;;;;12.10;1.00;;;;;;2268453;61;1568;-90
2021/01/01 20:20:21;173716.00;0.58;300.67;0.00;0.00;0.62;;;;;12.20;1.00;;;;;;2272754;61;1665;-89
2021/01/01 20:22:49;244717.00;0.82;422.86;0.00;0.00;0.62;;;;;12.10;1.00;;;;;;2272764;61;1427;-92
2021/01/01 20:25:18;387974.00;1.29;669.13;0.00;0.00;0.62;;;;;12.20;1.00;;;;;;2272814;61;1086;-92
2021/01/01 20:27:47;174075.00;0.58;301.29;0.00;0.00;0.62;;;;;12.10;1.00;;;;;;2272816;61;1522;-91
2021/01/01 20:30:24;126685.00;0.42;219.61;0.00;0.00;0.62;;;;;11.80;1.00;;;;;;2272699;61;1997;-90
2021/01/01 20:33:08;64980.00;0.22;113.08;0.00;0.00;0.62;;;;;11.60;1.00;;;;;;2272731;61;1718;-89
2021/01/01 20:35:37;175490.00;0.58;303.72;0.00;0.00;0.62;;;;;11.80;1.00;;;;;;2272822;61;1343;-90
2021/01/01 20:38:36;325296.00;1.08;561.40;0.00;0.00;0.62;;;;;11.90;1.00;;;;;;2272638;61;1574;-90
2021/01/01 20:41:25;159037.00;0.53;275.38;0.00;0.00;0.62;;;;;12.00;1.00;;;;;;2272804;61;1619;-89
2021/01/01 20:44:32;193914.00;0.65;335.45;0.00;0.00;0.62;;;;;12.10;1.00;;;;;;2270731;61;1633;-91
2021/01/01 20:56:19;267482.00;0.89;462.01;0.00;0.00;0.62;;;;;12.10;1.00;;;;;;2272651;61;1004;-90
2021/01/01 20:58:54;240038.00;0.80;414.82;16105.00;0.05;28.52;;;;;11.80;1.00;;;;;;2272693;61;1719;-91
2021/01/01 21:01:22;413111.00;1.38;712.35;0.00;0.00;0.62;;;;;11.80;1.00;;;;;;2272736;61;929;-91
2021/01/01 21:03:57;328508.00;1.10;566.92;0.00;0.00;0.62;;;;;11.90;1.00;;;;;;2272553;61;1387;-91
2021/01/01 21:06:28;393378.00;1.31;678.42;0.00;0.00;0.62;;;;;11.80;1.00;;;;;;2272560;61;1755;-90
2021/01/01 21:09:12;290439.00;0.97;501.48;0.00;0.00;0.62;;;;;11.80;1.00;;;;;;2272648;61;929;-92
2021/01/01 21:12:09;66777.00;0.22;116.19;0.00;0.00;0.62;;;;;11.60;1.00;;;;;;2272693;61;1104;-91
2021/01/01 21:15:16;19218.00;0.06;33.92;0.00;0.00;0.62;;;;;11.50;1.00;;;;;;2272625;61;1601;-90
2021/01/01 21:18:31;24914.00;0.08;43.78;0.00;0.00;0.62;;;;;11.50;1.00;;;;;;2272594;61;1255;-91
2021/01/01 21:21:31;57144.00;0.19;99.54;0.00;0.00;0.62;;;;;11.60;1.00;;;;;;2272535;61;1601;-92
2021/01/01 21:24:35;147438.00;0.49;255.39;0.00;0.00;0.62;;;;;11.50;1.00;;;;;;2272710;61;1325;-91
2021/01/01 21:27:21;56274.00;0.19;98.04;0.00;0.00;0.62;;;;;11.50;1.00;;;;;;2272662;61;1070;-89
2021/01/01 21:30:16;83465.00;0.28;145.02;0.00;0.00;0.62;;;;;11.60;1.00;;;;;;2272597;61;1927;-90
2021/01/01 21:33:21;55157.00;0.18;96.10;0.00;0.00;0.62;;;;;11.60;1.00;;;;;;2272655;61;1470;-91
2021/01/01 21:36:32;35226.00;0.12;61.63;0.00;0.00;0.62;;;;;11.60;1.00;;;;;;2272624;61;973;-90
2021/01/01 21:39:34;67384.00;0.22;117.24;0.00;0.00;0.62;;;;;11.60;1.00;;;;;;2272597;61;1616;-90
2021/01/01 21:42:36;95716.00;0.32;166.18;0.00;0.00;0.62;;;;;11.50;1.00;;;;;;2256061;61;1753;-89
2021/01/01 21:45:27;405961.00;1.35;700.05;0.00;0.00;0.62;;;;;11.40;1.00;;;;;;2264142;61;1487;-89
2021/01/01 21:48:20;205578.00;0.69;355.52;0.00;0.00;0.62;;;;;11.60;1.00;;;;;;2272606;61;1700;-89
2021/01/01 21:51:00;129298.00;0.43;224.12;0.00;0.00;0.62;;;;;11.60;1.00;;;;;;2272585;61;1981;-90
2021/01/01 21:53:29;0.00;0.00;0.62;0.00;0.00;0.62;;;;;11.50;1.00;;;;;;2272579;61;1396;-91
2021/01/01 21:56:04;95956.00;0.32;166.59;0.00;0.00;0.62;;;;;11.60;1.00;;;;;;2272526;61;1255;-90
2021/01/01 21:58:32;118812.00;0.40;206.03;0.00;0.00;0.62;;;;;11.60;1.00;;;;;;2272633;61;1009;-90
2021/01/01 22:01:02;167213.00;0.56;289.47;29295.00;0.10;51.36;;;;;11.70;1.00;;;;;;2272608;61;1056;-89
2021/01/01 22:08:32;89205.00;0.30;154.93;0.00;0.00;0.62;;;;;11.40;1.00;;;;;;2278103;61;1424;-90
2021/01/01 22:10:58;6072.00;0.02;11.14;0.00;0.00;0.62;;;;;10.80;1.00;;;;;;2276533;61;1919;-90
2021/01/01 22:13:25;36318.00;0.12;63.52;0.00;0.00;0.62;;;;;10.50;1.00;;;;;;2276751;61;1343;-88
2021/01/01 22:15:52;53136.00;0.18;92.61;0.00;0.00;0.62;;;;;10.80;1.00;;;;;;2268649;61;1025;-89
2021/01/01 22:18:19;12989.00;0.04;23.13;0.00;0.00;0.62;;;;;11.20;1.00;;;;;;2268754;61;1152;-89
2021/01/01 22:20:46;220332.00;0.73;380.91;0.00;0.00;0.62;;;;;11.50;1.00;;;;;;2268658;61;1730;-90
2021/01/01 22:23:13;192807.00;0.64;333.54;0.00;0.00;0.62;;;;;11.50;1.00;;;;;;2268791;61;1368;-91
2021/01/01 22:25:39;195389.00;0.65;337.99;0.00;0.00;0.62;;;;;11.00;1.00;;;;;;2268852;61;1011;-91
2021/01/01 22:28:06;216928.00;0.72;375.06;0.00;0.00;0.62;;;;;10.20;1.00;;;;;;2268768;61;1091;-89
2021/01/01 22:30:32;70827.00;0.24;123.19;0.00;0.00;0.62;;;;;10.40;1.00;;;;;;2268740;61;1924;-90
2021/01/01 22:32:59;177853.00;0.59;307.79;0.00;0.00;0.62;;;;;10.90;1.00;;;;;;2269713;61;1760;-89
2021/01/01 22:35:26;161532.00;0.54;279.68;0.00;0.00;0.62;;;;;11.00;1.00;;;;;;2277112;61;1691;-89
2021/01/01 22:37:53;178723.00;0.60;309.29;0.00;0.00;0.62;;;;;11.40;1.00;;;;;;2277152;61;1675;-90
2021/01/01 22:40:19;139223.00;0.46;241.23;0.00;0.00;0.62;;;;;11.60;1.00;;;;;;2277155;61;1745;-90
2021/01/01 22:42:46;168865.00;0.56;292.31;0.00;0.00;0.62;;;;;11.70;1.00;;;;;;2277185;61;1564;-90
2021/01/01 22:45:13;133798.00;0.45;231.88;0.00;0.00;0.62;;;;;11.60;1.00;;;;;;2277192;61;1620;-90
2021/01/01 22:47:40;148416.00;0.49;257.08;0.00;0.00;0.62;;;;;11.50;1.00;;;;;;2277256;61;981;-92
2021/01/01 22:50:10;75691.00;0.25;131.59;0.00;0.00;0.62;;;;;11.70;1.00;;;;;;2277044;61;1921;-90
2021/01/01 22:52:37;27974.00;0.09;49.08;0.00;0.00;0.62;;;;;11.80;1.00;;;;;;2277074;61;1609;-91
2021/01/01 22:55:05;265225.00;0.88;458.13;0.00;0.00;0.62;;;;;11.60;1.00;;;;;;2277156;61;1832;-90
2021/01/01 22:57:39;172434.00;0.57;298.46;0.00;0.00;0.62;;;;;11.90;1.00;;;;;;2277156;61;1736;-90
2021/01/01 23:00:09;56612.00;0.19;98.62;0.00;0.00;0.62;;;;;12.00;1.00;;;;;;2277077;61;1635;-89
2021/01/01 23:02:43;0.00;0.00;0.62;0.00;0.00;0.62;;;;;12.10;1.00;;;;;;2277098;61;1415;-90
2021/01/01 23:05:13;348218.00;1.16;600.80;0.00;0.00;0.62;;;;;11.80;1.00;;;;;;2277176;61;1596;-88
2021/01/01 23:07:42;21268.00;0.07;37.47;0.00;0.00;0.62;;;;;11.50;1.00;;;;;;2277062;61;1026;-87
2021/01/01 23:10:10;46201.00;0.15;80.62;0.00;0.00;0.62;;;;;11.40;1.00;;;;;;2276785;61;1998;-88
2021/01/01 23:12:44;89951.00;0.30;156.22;0.00;0.00;0.62;;;;;11.40;1.00;;;;;;2277119;61;1430;-88
2021/01/01 23:15:13;35128.00;0.12;61.46;0.00;0.00;0.62;;;;;11.50;1.00;;;;;;2277187;61;1078;-90
2021/01/01 23:17:43;71513.00;0.24;124.37;0.00;0.00;0.62;;;;;11.50;1.00;;;;;;2277079;61;1710;-90
2021/01/01 23:20:20;33811.00;0.11;59.18;0.00;0.00;0.62;;;;;11.60;1.00;;;;;;2277049;61;1602;-89
2021/01/01 23:22:51;87458.00;0.29;151.92;0.00;0.00;0.62;;;;;11.70;1.00;;;;;;2277030;61;1372;-90
2021/01/01 23:25:22;133990.00;0.45;232.21;0.00;0.00;0.62;;;;;11.70;1.00;;;;;;2277039;61;1621;-89
2021/01/01 23:28:30;163661.00;0.55;283.35;0.00;0.00;0.62;;;;;11.50;1.00;;;;;;2277073;61;1664;-90